createdAt,value
2022-11-09T00:01:22.118Z,18.10
2022-11-09T00:03:50.143Z,18.10
2022-11-09T00:06:18.167Z,18.10
2022-11-09T00:08:46.187Z,18.10
2022-11-09T00:11:14.338Z,18.10
2022-11-09T00:13:44.836Z,18.00
2022-11-09T00:16:19.260Z,18.00
2022-11-09T00:18:48.482Z,18.00
2022-11-09T00:21:19.751Z,18.00
2022-11-09T00:23:48.738Z,18.00
2022-11-09T00:26:19.035Z,18.00
2022-11-09T00:28:47.160Z,18.00
2022-11-09T00:31:19.623Z,18.00
2022-11-09T00:33:50.481Z,18.00
2022-11-09T00:36:20.094Z,18.00
2022-11-09T00:38:51.289Z,18.00
2022-11-09T00:41:20.411Z,18.00
2022-11-09T00:43:50.115Z,18.00
2022-11-09T00:46:21.134Z,18.00
2022-11-09T00:48:51.621Z,18.00
2022-11-09T00:51:19.933Z,18.00
2022-11-09T00:53:48.289Z,18.00
2022-11-09T00:56:16.424Z,18.00
2022-11-09T00:58:44.550Z,18.00
2022-11-09T01:01:15.608Z,18.00
2022-11-09T01:03:46.956Z,18.00
2022-11-09T01:06:17.742Z,18.00
2022-11-09T01:08:47.003Z,18.00
2022-11-09T01:11:17.982Z,18.00
2022-11-09T01:13:46.709Z,17.90
2022-11-09T01:16:18.039Z,17.90
2022-11-09T01:18:47.743Z,18.00
2022-11-09T01:21:17.560Z,18.00
2022-11-09T01:23:45.717Z,18.00
2022-11-09T01:26:17.047Z,17.90
2022-11-09T01:28:45.354Z,18.00
2022-11-09T01:31:16.703Z,17.90
2022-11-09T01:33:45.364Z,18.00
2022-11-09T01:36:17.407Z,17.90
2022-11-09T01:38:45.802Z,17.90
2022-11-09T01:41:17.193Z,17.90
2022-11-09T01:43:46.878Z,18.00
2022-11-09T01:46:22.042Z,17.90
2022-11-09T01:48:56.176Z,17.90
2022-11-09T01:51:32.562Z,17.90
2022-11-09T01:54:09.460Z,17.90
2022-11-09T01:56:38.763Z,17.90
2022-11-09T01:59:12.545Z,17.90
2022-11-09T02:01:42.866Z,17.90
2022-11-09T02:04:18.904Z,17.90
2022-11-09T02:06:49.285Z,17.90
2022-11-09T02:09:29.591Z,17.90
2022-11-09T02:11:57.916Z,17.90
2022-11-09T02:14:30.477Z,17.90
2022-11-09T02:16:59.030Z,17.90
2022-11-09T02:19:27.097Z,17.80
2022-11-09T02:21:56.522Z,17.90
2022-11-09T02:24:26.695Z,17.90
2022-11-09T02:26:55.774Z,17.90
2022-11-09T02:29:32.759Z,17.90
2022-11-09T02:32:06.739Z,17.90
2022-11-09T02:34:35.274Z,17.90
2022-11-09T02:37:05.301Z,17.90
2022-11-09T02:39:33.967Z,17.90
2022-11-09T02:42:10.050Z,17.90
2022-11-09T02:44:46.101Z,17.80
2022-11-09T02:47:14.150Z,17.90
2022-11-09T02:49:43.610Z,17.90
2022-11-09T02:52:13.000Z,17.90
2022-11-09T02:54:41.127Z,17.90
2022-11-09T02:57:09.333Z,17.90
2022-11-09T02:59:37.595Z,17.80
2022-11-09T03:02:07.297Z,17.90
2022-11-09T03:04:35.360Z,17.80
2022-11-09T03:07:03.920Z,17.80
2022-11-09T03:09:33.712Z,17.80
2022-11-09T03:12:22.443Z,17.80
2022-11-09T03:14:50.703Z,17.70
2022-11-09T03:17:18.813Z,17.80
2022-11-09T03:19:47.443Z,17.80
2022-11-09T03:22:15.980Z,17.80
2022-11-09T03:24:48.570Z,17.80
2022-11-09T03:27:18.049Z,17.80
2022-11-09T03:29:48.253Z,17.80
2022-11-09T03:32:16.680Z,17.80
2022-11-09T03:34:44.839Z,17.80
2022-11-09T03:37:14.961Z,17.80
2022-11-09T03:39:44.131Z,17.80
2022-11-09T03:42:13.522Z,17.80
2022-11-09T03:44:41.820Z,17.80
2022-11-09T03:47:09.827Z,17.80
2022-11-09T03:49:37.867Z,17.80
2022-11-09T03:52:06.093Z,17.80
2022-11-09T03:54:34.111Z,17.80
2022-11-09T03:57:02.172Z,17.80
2022-11-09T03:59:31.600Z,17.80
2022-11-09T04:01:59.680Z,17.80
2022-11-09T04:04:27.740Z,17.80
2022-11-09T04:06:55.820Z,17.80
2022-11-09T04:09:23.915Z,17.80
2022-11-09T04:11:51.941Z,17.80
2022-11-09T04:14:19.975Z,17.80
2022-11-09T04:16:49.367Z,17.80
2022-11-09T04:19:17.390Z,17.80
2022-11-09T04:21:45.493Z,17.80
2022-11-09T04:24:13.691Z,17.80
2022-11-09T04:26:42.519Z,17.80
2022-11-09T04:29:11.799Z,17.80
2022-11-09T04:31:39.835Z,17.80
2022-11-09T04:34:09.433Z,17.80
2022-11-09T04:36:37.481Z,17.80
2022-11-09T04:39:05.621Z,17.80
2022-11-09T04:41:33.653Z,17.70
2022-11-09T04:44:01.727Z,17.70
2022-11-09T04:46:30.454Z,17.80
2022-11-09T04:48:58.491Z,17.70
2022-11-09T04:51:28.038Z,17.70
2022-11-09T04:53:56.497Z,17.70
2022-11-09T04:56:24.588Z,17.70
2022-11-09T04:58:52.633Z,17.70
2022-11-09T05:01:20.795Z,17.70
2022-11-09T05:03:48.876Z,17.70
2022-11-09T05:06:35.475Z,17.70
2022-11-09T05:09:07.778Z,17.70
2022-11-09T05:11:37.469Z,17.70
2022-11-09T05:14:05.963Z,17.70
2022-11-09T05:16:34.002Z,17.70
2022-11-09T05:19:02.035Z,17.70
2022-11-09T05:21:30.123Z,17.70
2022-11-09T05:24:00.549Z,17.70
2022-11-09T05:26:33.059Z,17.70
2022-11-09T05:29:02.660Z,17.70
2022-11-09T05:31:32.360Z,17.70
2022-11-09T05:34:01.671Z,17.70
2022-11-09T05:36:31.242Z,17.70
2022-11-09T05:38:59.498Z,17.70
2022-11-09T05:41:28.299Z,17.70
2022-11-09T05:43:58.027Z,17.70
2022-11-09T05:46:26.966Z,17.70
2022-11-09T05:48:55.079Z,17.70
2022-11-09T05:51:23.086Z,17.70
2022-11-09T05:53:51.105Z,17.70
2022-11-09T05:56:19.166Z,17.70
2022-11-09T05:58:48.411Z,17.70
2022-11-09T06:01:19.738Z,17.70
2022-11-09T06:03:48.406Z,17.70
2022-11-09T06:06:18.184Z,17.70
2022-11-09T06:08:46.222Z,17.60
2022-11-09T06:11:22.752Z,17.70
2022-11-09T06:13:52.105Z,17.70
2022-11-09T06:16:22.195Z,17.70
2022-11-09T06:18:50.288Z,17.70
2022-11-09T06:21:18.606Z,17.60
2022-11-09T06:23:46.638Z,17.70
2022-11-09T06:26:15.183Z,17.70
2022-11-09T06:28:43.962Z,17.70
2022-11-09T06:31:15.470Z,17.70
2022-11-09T06:33:45.330Z,17.70
2022-11-09T06:36:13.973Z,17.70
2022-11-09T06:38:42.331Z,17.70
2022-11-09T06:41:11.532Z,17.70
2022-11-09T06:43:39.662Z,17.70
2022-11-09T06:46:08.011Z,17.80
2022-11-09T06:48:36.028Z,17.70
2022-11-09T06:51:07.755Z,17.70
2022-11-09T06:53:37.833Z,17.70
2022-11-09T06:56:07.870Z,17.60
2022-11-09T06:58:37.314Z,17.70
2022-11-09T07:01:10.153Z,17.70
2022-11-09T07:03:39.370Z,17.80
2022-11-09T07:06:11.706Z,17.70
2022-11-09T07:08:40.369Z,17.80
2022-11-09T07:11:10.454Z,17.80
2022-11-09T07:13:39.297Z,17.80
2022-11-09T07:16:08.691Z,17.80
2022-11-09T07:18:36.746Z,17.80
2022-11-09T07:21:13.723Z,17.80
2022-11-09T07:23:43.146Z,17.80
2022-11-09T07:26:11.307Z,17.80
2022-11-09T07:28:39.523Z,17.80
2022-11-09T07:31:08.207Z,17.80
2022-11-09T07:33:36.554Z,17.80
2022-11-09T07:36:06.590Z,17.80
2022-11-09T07:38:36.055Z,17.80
2022-11-09T07:41:04.123Z,17.90
2022-11-09T07:43:32.211Z,17.90
2022-11-09T07:46:05.669Z,17.90
2022-11-09T07:48:34.043Z,17.90
2022-11-09T07:51:03.596Z,17.90
2022-11-09T07:53:32.078Z,17.90
2022-11-09T07:56:04.570Z,17.80
2022-11-09T07:58:34.221Z,17.90
2022-11-09T08:01:02.291Z,18.00
2022-11-09T08:03:30.330Z,17.80
2022-11-09T08:05:58.917Z,18.00
2022-11-09T08:08:27.124Z,18.00
2022-11-09T08:10:57.855Z,18.00
2022-11-09T08:13:27.491Z,18.00
2022-11-09T08:15:55.578Z,18.00
2022-11-09T08:18:24.470Z,18.00
2022-11-09T08:20:52.628Z,18.10
2022-11-09T08:23:21.921Z,18.10
2022-11-09T08:25:51.505Z,18.10
2022-11-09T08:28:20.009Z,18.10
2022-11-09T08:30:58.100Z,18.10
2022-11-09T08:33:27.348Z,18.10
2022-11-09T08:35:56.309Z,17.90
2022-11-09T08:38:24.676Z,18.20
2022-11-09T08:40:58.573Z,18.10
2022-11-09T08:43:27.512Z,18.20
2022-11-09T08:45:56.865Z,18.20
2022-11-09T08:48:24.913Z,18.20
2022-11-09T08:50:54.918Z,18.20
2022-11-09T08:53:23.030Z,18.20
2022-11-09T08:55:51.514Z,18.20
2022-11-09T08:58:20.415Z,18.20
2022-11-09T09:00:48.742Z,18.20
2022-11-09T09:03:18.468Z,18.20
2022-11-09T09:05:46.480Z,18.20
2022-11-09T09:08:15.737Z,18.20
2022-11-09T09:10:43.987Z,18.20
2022-11-09T09:13:11.992Z,18.20
2022-11-09T09:15:40.379Z,18.20
2022-11-09T09:18:08.398Z,18.30
2022-11-09T09:20:37.767Z,18.30
2022-11-09T09:23:05.817Z,18.30
2022-11-09T09:25:33.869Z,18.30
2022-11-09T09:28:01.902Z,18.30
2022-11-09T09:30:29.995Z,18.30
2022-11-09T09:33:00.775Z,18.30
2022-11-09T09:35:29.363Z,18.30
2022-11-09T09:37:59.076Z,18.30
2022-11-09T09:40:35.566Z,18.30
2022-11-09T09:43:04.121Z,18.30
2022-11-09T09:45:36.508Z,18.30
2022-11-09T09:48:22.476Z,18.30
2022-11-09T09:50:58.491Z,18.30
2022-11-09T09:53:34.821Z,18.30
2022-11-09T09:56:10.694Z,18.40
2022-11-09T09:58:46.928Z,18.40
2022-11-09T10:01:19.937Z,18.40
2022-11-09T10:03:48.391Z,18.50
2022-11-09T10:06:38.884Z,18.40
2022-11-09T10:09:25.496Z,18.40
2022-11-09T10:12:06.465Z,18.50
2022-11-09T10:15:01.878Z,18.50
2022-11-09T10:17:42.459Z,18.50
2022-11-09T10:20:34.185Z,18.50
2022-11-09T10:23:23.698Z,18.50
2022-11-09T10:26:06.053Z,18.50
2022-11-09T10:29:13.821Z,18.60
2022-11-09T10:31:34.836Z,18.60
2022-11-09T10:34:17.448Z,18.60
2022-11-09T10:36:53.547Z,18.60
2022-11-09T10:39:27.404Z,18.60
2022-11-09T10:42:15.659Z,18.70
2022-11-09T10:45:15.080Z,18.60
2022-11-09T10:48:03.762Z,18.70
2022-11-09T10:50:53.902Z,18.70
2022-11-09T10:53:40.281Z,18.70
2022-11-09T10:56:32.989Z,18.70
2022-11-09T10:59:51.292Z,18.70
2022-11-09T11:02:47.615Z,18.70
2022-11-09T11:05:35.643Z,18.80
2022-11-09T11:08:37.527Z,18.70
2022-11-09T11:11:34.816Z,18.80
2022-11-09T11:14:31.385Z,18.80
2022-11-09T11:17:29.360Z,18.80
2022-11-09T11:20:35.073Z,18.80
2022-11-09T11:23:24.899Z,18.80
2022-11-09T11:26:36.165Z,18.70
2022-11-09T11:29:49.267Z,18.80
2022-11-09T11:32:37.485Z,18.90
2022-11-09T11:35:35.177Z,18.90
2022-11-09T11:38:30.794Z,18.90
2022-11-09T11:41:48.172Z,18.90
2022-11-09T11:45:07.124Z,18.90
2022-11-09T11:48:29.712Z,18.90
2022-11-09T11:51:27.649Z,19.00
2022-11-09T11:54:28.015Z,19.00
2022-11-09T11:57:28.839Z,19.00
2022-11-09T12:00:19.733Z,18.90
2022-11-09T12:03:40.938Z,19.00
2022-11-09T12:06:51.390Z,19.10
2022-11-09T12:09:55.239Z,19.10
2022-11-09T12:12:57.209Z,19.10
2022-11-09T12:15:54.942Z,19.10
2022-11-09T12:18:59.741Z,19.20
2022-11-09T12:21:58.440Z,19.20
2022-11-09T12:24:59.052Z,19.20
2022-11-09T12:28:16.258Z,19.20
2022-11-09T12:31:24.314Z,19.20
2022-11-09T12:34:22.227Z,19.30
2022-11-09T12:37:14.919Z,19.20
2022-11-09T12:40:14.673Z,19.30
2022-11-09T12:43:11.748Z,19.30
2022-11-09T12:46:01.083Z,19.40
2022-11-09T12:48:49.773Z,19.40
2022-11-09T12:51:39.085Z,19.40
2022-11-09T12:54:27.109Z,19.50
2022-11-09T12:57:22.324Z,19.50
2022-11-09T13:00:49.379Z,19.50
2022-11-09T13:03:40.771Z,19.50
2022-11-09T13:06:30.431Z,19.50
2022-11-09T13:09:32.616Z,19.50
2022-11-09T13:12:39.139Z,19.50
2022-11-09T13:15:28.873Z,19.50
2022-11-09T13:18:26.830Z,19.50
2022-11-09T13:21:40.312Z,19.50
2022-11-09T13:24:59.653Z,19.50
2022-11-09T13:27:48.735Z,19.60
2022-11-09T13:30:44.578Z,19.60
2022-11-09T13:33:31.705Z,19.60
2022-11-09T13:36:22.362Z,19.60
2022-11-09T13:39:33.531Z,19.60
2022-11-09T13:42:33.062Z,19.50
2022-11-09T13:45:35.420Z,19.60
2022-11-09T13:48:42.057Z,19.60
2022-11-09T13:51:46.046Z,19.60
2022-11-09T13:54:34.855Z,19.60
2022-11-09T13:57:24.710Z,19.60
2022-11-09T14:00:23.365Z,19.60
2022-11-09T14:03:22.890Z,19.60
2022-11-09T14:06:13.732Z,19.60
2022-11-09T14:09:01.771Z,19.70
2022-11-09T14:12:20.397Z,19.60
2022-11-09T14:15:40.776Z,19.50
2022-11-09T14:18:42.931Z,19.60
2022-11-09T14:21:44.621Z,19.60
2022-11-09T14:24:33.622Z,19.60
2022-11-09T14:27:23.354Z,19.60
2022-11-09T14:30:22.590Z,19.60
2022-11-09T14:33:26.825Z,19.60
2022-11-09T14:36:14.640Z,19.60
2022-11-09T14:39:04.345Z,19.60
2022-11-09T14:41:51.643Z,19.60
2022-11-09T14:44:45.058Z,19.60
2022-11-09T14:47:38.106Z,19.60
2022-11-09T14:50:29.433Z,19.60
2022-11-09T14:53:22.240Z,19.60
2022-11-09T14:56:13.228Z,19.60
2022-11-09T14:59:02.116Z,19.60
2022-11-09T15:02:01.612Z,19.60
2022-11-09T15:04:57.071Z,19.50
2022-11-09T15:07:48.562Z,19.60
2022-11-09T15:10:36.352Z,19.60
2022-11-09T15:16:31.346Z,19.50
2022-11-09T15:19:25.840Z,19.50
2022-11-09T15:22:51.942Z,19.40
2022-11-09T15:25:56.380Z,19.50
2022-11-09T15:28:49.328Z,19.50
2022-11-09T15:31:36.165Z,19.50
2022-11-09T15:34:27.343Z,19.50
2022-11-09T15:37:28.366Z,19.40
2022-11-09T15:40:20.216Z,19.40
2022-11-09T15:43:06.928Z,19.50
2022-11-09T15:45:54.257Z,19.50
2022-11-09T15:48:45.569Z,19.40
2022-11-09T15:51:32.540Z,19.50
2022-11-09T15:54:19.688Z,19.40
2022-11-09T15:57:07.947Z,19.40
2022-11-09T15:59:54.737Z,19.40
2022-11-09T16:02:42.015Z,19.40
2022-11-09T16:05:28.998Z,19.40
2022-11-09T16:08:15.953Z,19.40
2022-11-09T16:11:05.616Z,19.40
2022-11-09T16:13:53.960Z,19.40
2022-11-09T16:16:40.627Z,19.40
2022-11-09T16:19:27.320Z,19.30
2022-11-09T16:22:13.998Z,19.30
2022-11-09T16:25:00.818Z,19.30
2022-11-09T16:27:50.700Z,19.30
2022-11-09T16:30:42.792Z,19.30
2022-11-09T16:33:32.289Z,19.30
2022-11-09T16:36:23.382Z,19.20
2022-11-09T16:39:16.960Z,19.20
2022-11-09T16:42:08.831Z,19.20
2022-11-09T16:45:01.253Z,19.20
2022-11-09T16:47:53.926Z,19.20
2022-11-09T16:50:40.820Z,19.20
2022-11-09T16:53:27.749Z,19.20
2022-11-09T16:56:14.856Z,19.20
2022-11-09T16:59:01.400Z,19.20
2022-11-09T17:01:52.643Z,19.10
2022-11-09T17:04:40.646Z,19.10
2022-11-09T17:07:27.948Z,19.10
2022-11-09T17:10:14.429Z,19.10
2022-11-09T17:13:01.681Z,19.10
2022-11-09T17:15:51.782Z,19.10
2022-11-09T17:18:39.410Z,19.10
2022-11-09T17:21:30.368Z,19.00
2022-11-09T17:24:17.484Z,19.00
2022-11-09T17:27:05.100Z,19.00
2022-11-09T17:29:52.311Z,19.00
2022-11-09T17:32:40.714Z,19.00
2022-11-09T17:35:28.051Z,19.00
2022-11-09T17:38:15.873Z,19.00
2022-11-09T17:41:04.665Z,19.00
2022-11-09T17:43:51.339Z,19.00
2022-11-09T17:46:38.097Z,19.00
2022-11-09T17:49:24.524Z,19.00
2022-11-09T17:52:11.402Z,19.00
2022-11-09T17:54:59.447Z,18.90
2022-11-09T17:57:46.100Z,19.00
2022-11-09T18:00:32.735Z,18.90
2022-11-09T18:03:19.631Z,18.90
2022-11-09T18:06:12.744Z,18.90
2022-11-09T18:09:34.332Z,18.90
2022-11-09T18:12:08.168Z,18.90
2022-11-09T18:14:54.805Z,18.90
2022-11-09T18:17:41.574Z,18.90
2022-11-09T18:20:28.258Z,18.90
2022-11-09T18:23:15.118Z,18.90
2022-11-09T18:26:02.873Z,18.90
2022-11-09T18:28:51.456Z,18.90
2022-11-09T18:31:38.350Z,18.90
2022-11-09T18:34:24.889Z,18.90
2022-11-09T18:37:11.364Z,18.90
2022-11-09T18:39:58.148Z,18.90
2022-11-09T18:42:44.899Z,18.90
2022-11-09T18:45:34.680Z,18.90
2022-11-09T18:48:21.990Z,18.90
2022-11-09T18:51:10.664Z,18.80
2022-11-09T18:53:57.633Z,18.80
2022-11-09T18:56:45.697Z,18.80
2022-11-09T18:59:34.008Z,18.90
2022-11-09T19:02:21.966Z,18.80
2022-11-09T19:05:09.317Z,18.80
2022-11-09T19:07:55.864Z,18.80
2022-11-09T19:10:42.652Z,18.80
2022-11-09T19:13:29.581Z,18.90
2022-11-09T19:16:17.424Z,18.80
2022-11-09T19:19:05.564Z,18.80
2022-11-09T19:21:55.017Z,18.80
2022-11-09T19:24:42.004Z,18.80
2022-11-09T19:27:29.091Z,18.80
2022-11-09T19:30:16.180Z,18.80
2022-11-09T19:33:03.362Z,18.80
2022-11-09T19:36:23.255Z,18.80
2022-11-09T19:39:01.121Z,18.80
2022-11-09T19:41:47.961Z,18.80
2022-11-09T19:44:34.800Z,18.80
2022-11-09T19:47:21.702Z,18.80
2022-11-09T19:50:09.671Z,18.80
2022-11-09T19:52:57.555Z,18.80
2022-11-09T19:55:44.553Z,18.80
2022-11-09T19:58:31.831Z,18.80
2022-11-09T20:01:19.190Z,18.80
2022-11-09T20:04:10.111Z,18.80
2022-11-09T20:06:57.361Z,18.80
2022-11-09T20:09:45.818Z,18.80
2022-11-09T20:12:50.949Z,18.80
2022-11-09T20:15:37.447Z,18.80
2022-11-09T20:18:25.284Z,18.80
2022-11-09T20:21:12.292Z,18.80
2022-11-09T20:23:59.080Z,18.80
2022-11-09T20:26:46.876Z,18.80
2022-11-09T20:29:33.480Z,18.80
2022-11-09T20:32:21.660Z,18.80
2022-11-09T20:35:10.121Z,18.80
2022-11-09T20:37:56.984Z,18.80
2022-11-09T20:40:43.874Z,18.80
2022-11-09T20:43:32.202Z,18.80
2022-11-09T20:46:22.410Z,18.80
2022-11-09T20:49:09.121Z,18.80
2022-11-09T20:51:56.041Z,18.80
2022-11-09T20:54:42.504Z,18.80
2022-11-09T20:57:29.114Z,18.80
2022-11-09T21:00:24.079Z,18.80
2022-11-09T21:03:11.369Z,18.80
2022-11-09T21:05:59.648Z,18.80
2022-11-09T21:08:47.317Z,18.80
2022-11-09T21:11:36.832Z,18.80
2022-11-09T21:14:23.454Z,18.80
2022-11-09T21:17:12.029Z,18.80
2022-11-09T21:19:58.428Z,18.80
2022-11-09T21:23:03.057Z,18.80
2022-11-09T21:26:07.515Z,18.80
2022-11-09T21:29:12.203Z,18.80
2022-11-09T21:31:58.974Z,18.80
2022-11-09T21:34:47.031Z,18.70
2022-11-09T21:37:33.914Z,18.80
2022-11-09T21:40:20.611Z,18.80
2022-11-09T21:43:07.280Z,18.80
2022-11-09T21:45:54.663Z,18.80
2022-11-09T21:48:41.522Z,18.80
2022-11-09T21:51:29.617Z,18.80
2022-11-09T21:54:16.661Z,18.80
2022-11-09T21:57:03.562Z,18.80
2022-11-09T21:59:50.216Z,18.80
2022-11-09T22:02:37.210Z,18.80
2022-11-09T22:05:24.050Z,18.80
2022-11-09T22:08:12.157Z,18.80
2022-11-09T22:11:06.008Z,18.70
2022-11-09T22:14:10.459Z,18.80
2022-11-09T22:16:57.121Z,18.70
2022-11-09T22:20:01.395Z,18.70
2022-11-09T22:22:48.308Z,18.70
2022-11-09T22:25:36.405Z,18.70
2022-11-09T22:28:23.217Z,18.70
2022-11-09T22:31:11.807Z,18.70
2022-11-09T22:33:58.437Z,18.70
2022-11-09T22:36:45.069Z,18.70
2022-11-09T22:39:31.892Z,18.70
2022-11-09T22:42:20.146Z,18.70
2022-11-09T22:45:08.276Z,18.70
2022-11-09T22:47:54.878Z,18.70
2022-11-09T22:50:41.316Z,18.70
2022-11-09T22:53:28.383Z,18.70
2022-11-09T22:56:15.231Z,18.70
2022-11-09T22:59:03.370Z,18.70
2022-11-09T23:01:50.287Z,18.70
2022-11-09T23:04:36.984Z,18.70
2022-11-09T23:07:24.546Z,18.70
2022-11-09T23:10:11.273Z,18.70
2022-11-09T23:12:59.264Z,18.70
2022-11-09T23:15:55.825Z,18.60
2022-11-09T23:18:57.442Z,18.70
2022-11-09T23:21:44.276Z,18.60
2022-11-09T23:24:48.861Z,18.60
2022-11-09T23:27:35.635Z,18.60
2022-11-09T23:30:23.195Z,18.60
2022-11-09T23:33:12.114Z,18.60
2022-11-09T23:36:01.595Z,18.60
2022-11-09T23:38:48.692Z,18.60
2022-11-09T23:41:35.263Z,18.60
2022-11-09T23:44:21.881Z,18.60
2022-11-09T23:47:08.705Z,18.60
2022-11-09T23:49:56.464Z,18.60
2022-11-09T23:52:43.220Z,18.60
2022-11-09T23:55:30.960Z,18.60
2022-11-09T23:58:17.818Z,18.60
